createdAt,value
2022-11-03T00:01:14.057Z,4.20
2022-11-03T00:03:42.035Z,3.83
2022-11-03T00:06:09.877Z,4.20
2022-11-03T00:08:40.108Z,4.23
2022-11-03T00:11:10.519Z,4.37
2022-11-03T00:13:39.259Z,4.57
2022-11-03T00:16:08.523Z,3.87
2022-11-03T00:18:38.516Z,4.53
2022-11-03T00:21:08.165Z,4.00
2022-11-03T00:23:37.903Z,2.93
2022-11-03T00:26:10.654Z,3.23
2022-11-03T00:28:38.929Z,4.10
2022-11-03T00:31:09.090Z,3.07
2022-11-03T00:33:40.444Z,3.40
2022-11-03T00:36:09.248Z,3.60
2022-11-03T00:38:39.209Z,3.97
2022-11-03T00:41:08.668Z,3.17
2022-11-03T00:43:36.921Z,3.20
2022-11-03T00:46:06.031Z,3.20
2022-11-03T00:48:34.090Z,3.80
2022-11-03T00:51:05.117Z,4.60
2022-11-03T00:53:34.798Z,4.10
2022-11-03T00:56:02.974Z,3.97
2022-11-03T00:58:30.746Z,3.60
2022-11-03T01:01:02.947Z,4.10
2022-11-03T01:03:33.410Z,4.30
2022-11-03T01:06:18.901Z,4.90
2022-11-03T01:08:48.006Z,3.23
2022-11-03T01:11:36.323Z,3.80
2022-11-03T01:14:04.800Z,4.63
2022-11-03T01:16:35.261Z,4.03
2022-11-03T01:19:05.375Z,3.90
2022-11-03T01:21:32.965Z,4.20
2022-11-03T01:24:02.915Z,4.10
2022-11-03T01:26:30.954Z,4.33
2022-11-03T01:29:00.529Z,5.03
2022-11-03T01:31:32.136Z,4.27
2022-11-03T01:33:59.741Z,3.90
2022-11-03T01:36:27.806Z,3.97
2022-11-03T01:38:56.248Z,4.87
2022-11-03T01:41:28.242Z,3.93
2022-11-03T01:44:35.848Z,3.93
2022-11-03T01:47:14.270Z,4.20
2022-11-03T01:49:48.036Z,3.80
2022-11-03T01:52:21.062Z,4.13
2022-11-03T01:54:52.652Z,3.53
2022-11-03T01:57:27.056Z,3.93
2022-11-03T01:59:57.937Z,3.03
2022-11-03T02:02:26.088Z,3.73
2022-11-03T02:04:54.999Z,3.53
2022-11-03T02:07:27.602Z,3.83
2022-11-03T02:09:55.211Z,3.67
2022-11-03T02:12:24.269Z,4.10
2022-11-03T02:14:58.051Z,4.03
2022-11-03T02:17:28.579Z,3.30
2022-11-03T02:20:00.268Z,3.57
2022-11-03T02:22:53.184Z,3.43
2022-11-03T02:25:35.992Z,2.97
2022-11-03T02:28:04.796Z,3.73
2022-11-03T02:30:37.877Z,3.33
2022-11-03T02:33:14.503Z,4.80
2022-11-03T02:35:49.448Z,3.43
2022-11-03T02:38:20.183Z,3.50
2022-11-03T02:40:54.448Z,4.10
2022-11-03T02:43:24.469Z,3.50
2022-11-03T02:45:53.582Z,3.50
2022-11-03T02:48:21.268Z,3.60
2022-11-03T02:50:50.049Z,4.43
2022-11-03T02:53:18.202Z,3.23
2022-11-03T02:55:57.206Z,3.70
2022-11-03T02:58:30.001Z,3.63
2022-11-03T03:01:04.095Z,3.27
2022-11-03T03:03:37.714Z,3.50
2022-11-03T03:06:10.694Z,3.80
2022-11-03T03:08:43.134Z,3.67
2022-11-03T03:11:13.504Z,3.40
2022-11-03T03:13:43.479Z,3.73
2022-11-03T03:16:17.219Z,4.13
2022-11-03T03:18:51.944Z,4.07
2022-11-03T03:21:23.927Z,3.50
2022-11-03T03:23:58.416Z,4.37
2022-11-03T03:26:31.135Z,3.40
2022-11-03T03:29:03.888Z,3.87
2022-11-03T03:31:37.176Z,3.87
2022-11-03T03:34:23.824Z,3.83
2022-11-03T03:36:57.539Z,3.30
2022-11-03T03:39:29.689Z,3.30
2022-11-03T03:41:59.947Z,3.53
2022-11-03T03:44:28.357Z,3.40
2022-11-03T03:47:01.111Z,3.30
2022-11-03T03:49:29.091Z,2.93
2022-11-03T03:51:57.176Z,3.27
2022-11-03T03:54:24.703Z,3.23
2022-11-03T03:56:57.526Z,3.10
2022-11-03T03:59:26.434Z,2.97
2022-11-03T04:01:54.256Z,2.90
2022-11-03T04:04:22.356Z,3.10
2022-11-03T04:06:50.000Z,2.70
2022-11-03T04:09:17.578Z,3.37
2022-11-03T04:12:03.060Z,3.33
2022-11-03T04:14:51.560Z,3.63
2022-11-03T04:17:39.035Z,3.53
2022-11-03T04:20:30.868Z,3.60
2022-11-03T04:22:58.530Z,3.00
2022-11-03T04:25:26.127Z,4.40
2022-11-03T04:27:53.724Z,3.60
2022-11-03T04:30:24.954Z,3.20
2022-11-03T04:32:53.848Z,2.83
2022-11-03T04:35:23.909Z,3.60
2022-11-03T04:37:56.901Z,3.20
2022-11-03T04:40:24.600Z,3.70
2022-11-03T04:42:52.303Z,3.60
2022-11-03T04:45:25.325Z,3.47
2022-11-03T04:47:54.183Z,3.40
2022-11-03T04:50:23.452Z,2.87
2022-11-03T04:52:55.172Z,2.60
2022-11-03T04:55:23.039Z,2.73
2022-11-03T04:57:57.994Z,3.47
2022-11-03T05:00:32.914Z,2.90
2022-11-03T05:03:01.717Z,3.17
2022-11-03T05:05:29.296Z,3.70
2022-11-03T05:07:59.291Z,2.77
2022-11-03T05:10:29.386Z,3.53
2022-11-03T05:12:58.586Z,3.67
2022-11-03T05:15:34.705Z,2.83
2022-11-03T05:18:07.735Z,3.70
2022-11-03T05:20:38.363Z,3.00
2022-11-03T05:23:06.999Z,3.43
2022-11-03T05:25:41.501Z,3.27
2022-11-03T05:28:22.443Z,3.43
2022-11-03T05:30:52.297Z,3.20
2022-11-03T05:33:29.393Z,3.17
2022-11-03T05:35:59.693Z,4.27
2022-11-03T05:38:32.307Z,3.33
2022-11-03T05:41:01.104Z,3.70
2022-11-03T05:43:29.775Z,3.80
2022-11-03T05:46:03.086Z,3.30
2022-11-03T05:48:35.210Z,3.17
2022-11-03T05:51:11.736Z,3.63
2022-11-03T05:53:43.214Z,3.87
2022-11-03T05:56:19.008Z,3.80
2022-11-03T05:58:50.904Z,4.40
2022-11-03T06:01:25.476Z,3.83
2022-11-03T06:03:53.329Z,3.53
2022-11-03T06:06:27.984Z,3.60
2022-11-03T06:09:00.798Z,4.70
2022-11-03T06:11:34.409Z,3.77
2022-11-03T06:14:04.494Z,3.50
2022-11-03T06:16:42.509Z,3.20
2022-11-03T06:19:23.360Z,3.90
2022-11-03T06:21:52.903Z,6.37
2022-11-03T06:24:22.778Z,8.70
2022-11-03T06:26:52.266Z,8.80
2022-11-03T06:29:21.363Z,7.00
2022-11-03T06:31:53.263Z,7.50
2022-11-03T06:34:33.767Z,6.20
2022-11-03T06:37:13.515Z,5.40
2022-11-03T06:39:41.453Z,5.97
2022-11-03T06:42:14.043Z,4.70
2022-11-03T06:44:43.045Z,3.80
2022-11-03T06:47:23.023Z,3.60
2022-11-03T06:49:51.802Z,4.33
2022-11-03T06:52:25.937Z,3.77
2022-11-03T06:55:00.492Z,3.97
2022-11-03T06:57:28.842Z,3.73
2022-11-03T07:00:19.939Z,3.03
2022-11-03T07:02:57.084Z,3.60
2022-11-03T07:05:26.933Z,3.67
2022-11-03T07:07:58.119Z,3.70
2022-11-03T07:10:29.977Z,3.33
2022-11-03T07:13:05.819Z,3.30
2022-11-03T07:15:39.942Z,3.53
2022-11-03T07:18:17.941Z,4.17
2022-11-03T07:20:46.426Z,4.50
2022-11-03T07:23:18.696Z,3.63
2022-11-03T07:25:49.188Z,3.30
2022-11-03T07:28:16.779Z,3.40
2022-11-03T07:30:44.597Z,3.57
2022-11-03T07:33:17.350Z,3.43
2022-11-03T07:36:13.859Z,4.87
2022-11-03T07:38:35.818Z,5.03
2022-11-03T07:41:03.475Z,3.50
2022-11-03T07:43:34.802Z,3.93
2022-11-03T07:46:03.457Z,5.13
2022-11-03T07:48:37.344Z,4.20
2022-11-03T07:51:16.438Z,4.80
2022-11-03T07:53:47.450Z,3.60
2022-11-03T07:56:19.074Z,5.07
2022-11-03T07:58:48.788Z,3.80
2022-11-03T08:01:38.060Z,3.80
2022-11-03T08:04:11.225Z,3.20
2022-11-03T08:06:38.963Z,3.30
2022-11-03T08:09:07.010Z,4.30
2022-11-03T08:11:35.988Z,2.90
2022-11-03T08:14:03.686Z,3.30
2022-11-03T08:16:32.289Z,3.97
2022-11-03T08:19:00.078Z,3.90
2022-11-03T08:21:29.159Z,3.10
2022-11-03T08:23:56.700Z,4.30
2022-11-03T08:26:24.317Z,3.43
2022-11-03T08:28:52.109Z,4.10
2022-11-03T08:31:20.787Z,3.93
2022-11-03T08:33:48.426Z,3.90
2022-11-03T08:36:16.193Z,3.53
2022-11-03T08:38:45.326Z,3.57
2022-11-03T08:41:13.048Z,3.63
2022-11-03T08:43:41.665Z,3.50
2022-11-03T08:46:17.303Z,2.90
2022-11-03T08:48:46.292Z,3.83
2022-11-03T08:51:14.618Z,3.23
2022-11-03T08:53:43.615Z,3.17
2022-11-03T08:56:15.092Z,3.40
2022-11-03T08:58:44.498Z,3.47
2022-11-03T09:01:12.245Z,2.93
2022-11-03T09:03:40.300Z,3.43
2022-11-03T09:06:08.443Z,3.97
2022-11-03T09:11:25.507Z,3.10
2022-11-03T09:13:53.035Z,3.80
2022-11-03T09:16:20.703Z,3.80
2022-11-03T09:18:48.474Z,3.33
2022-11-03T09:21:16.133Z,3.03
2022-11-03T09:23:43.724Z,3.27
2022-11-03T09:26:11.374Z,4.20
2022-11-03T09:28:40.372Z,3.53
2022-11-03T09:31:08.204Z,3.70
2022-11-03T09:33:36.969Z,2.77
2022-11-03T09:36:04.616Z,3.53
2022-11-03T09:38:32.199Z,3.83
2022-11-03T09:41:00.880Z,3.20
2022-11-03T09:43:28.515Z,3.60
2022-11-03T09:45:57.407Z,3.57
2022-11-03T09:48:25.501Z,3.30
2022-11-03T09:50:55.701Z,4.00
2022-11-03T09:53:23.302Z,3.83
2022-11-03T09:55:50.986Z,3.57
2022-11-03T09:58:19.428Z,3.23
2022-11-03T10:00:47.324Z,3.77
2022-11-03T10:03:20.285Z,4.20
2022-11-03T10:05:48.926Z,3.33
2022-11-03T10:08:25.167Z,4.00
2022-11-03T10:10:53.381Z,6.20
2022-11-03T10:13:27.890Z,3.77
2022-11-03T10:15:56.673Z,4.30
2022-11-03T10:18:27.019Z,3.17
2022-11-03T10:20:54.942Z,4.10
2022-11-03T10:23:22.496Z,3.43
2022-11-03T10:25:50.067Z,3.60
2022-11-03T10:28:21.381Z,3.40
2022-11-03T10:31:10.692Z,3.30
2022-11-03T10:33:42.120Z,3.63
2022-11-03T10:36:25.133Z,4.10
2022-11-03T10:38:53.713Z,3.43
2022-11-03T10:41:25.257Z,3.07
2022-11-03T10:44:05.729Z,3.90
2022-11-03T10:46:50.101Z,3.40
2022-11-03T10:49:21.322Z,3.90
2022-11-03T10:51:51.321Z,3.33
2022-11-03T10:54:21.183Z,3.27
2022-11-03T10:56:50.541Z,3.53
2022-11-03T10:59:20.773Z,3.27
2022-11-03T11:01:50.137Z,4.03
2022-11-03T11:04:21.365Z,3.40
2022-11-03T11:06:49.452Z,2.60
2022-11-03T11:09:23.292Z,2.70
2022-11-03T11:12:02.350Z,3.30
2022-11-03T11:14:39.029Z,2.83
2022-11-03T11:17:06.967Z,3.67
2022-11-03T11:20:07.024Z,3.10
2022-11-03T11:22:35.998Z,3.27
2022-11-03T11:25:03.994Z,3.30
2022-11-03T11:27:58.783Z,3.00
2022-11-03T11:31:03.720Z,2.37
2022-11-03T11:33:34.175Z,2.30
2022-11-03T11:36:25.422Z,2.37
2022-11-03T11:39:04.837Z,2.97
2022-11-03T11:42:11.758Z,2.13
2022-11-03T11:45:04.422Z,1.93
2022-11-03T11:47:44.608Z,2.00
2022-11-03T11:50:34.155Z,2.27
2022-11-03T11:53:21.476Z,2.80
2022-11-03T11:55:54.909Z,2.33
2022-11-03T11:58:26.631Z,2.97
2022-11-03T12:01:00.977Z,2.50
2022-11-03T12:03:35.307Z,2.40
2022-11-03T12:06:03.061Z,2.00
2022-11-03T12:08:32.469Z,2.37
2022-11-03T12:11:04.017Z,2.37
2022-11-03T12:13:49.321Z,2.07
2022-11-03T12:16:31.867Z,2.10
2022-11-03T12:19:37.906Z,1.90
2022-11-03T12:22:06.485Z,1.93
2022-11-03T12:24:46.536Z,1.77
2022-11-03T12:27:43.460Z,2.10
2022-11-03T12:30:16.942Z,2.10
2022-11-03T12:32:46.115Z,1.50
2022-11-03T12:35:15.635Z,2.53
2022-11-03T12:37:43.692Z,2.10
2022-11-03T12:40:16.562Z,2.67
2022-11-03T12:42:46.847Z,2.80
2022-11-03T12:45:14.795Z,1.90
2022-11-03T12:47:42.456Z,2.13
2022-11-03T12:50:10.800Z,2.20
2022-11-03T12:52:38.381Z,1.90
2022-11-03T12:55:06.644Z,2.40
2022-11-03T12:57:34.245Z,2.00
2022-11-03T13:00:03.887Z,2.20
2022-11-03T13:02:31.684Z,2.50
2022-11-03T13:04:59.499Z,2.00
2022-11-03T13:07:31.949Z,2.63
2022-11-03T13:10:04.776Z,2.30
2022-11-03T13:12:33.785Z,2.33
2022-11-03T13:15:04.445Z,2.50
2022-11-03T13:17:40.610Z,2.20
2022-11-03T13:20:21.757Z,2.67
2022-11-03T13:22:49.429Z,1.87
2022-11-03T13:25:17.726Z,2.40
2022-11-03T13:27:45.574Z,2.10
2022-11-03T13:30:14.932Z,3.00
2022-11-03T13:32:42.565Z,1.90
2022-11-03T13:35:15.337Z,2.10
2022-11-03T13:37:43.206Z,2.57
2022-11-03T13:40:29.182Z,2.43
2022-11-03T13:43:00.210Z,1.97
2022-11-03T13:45:30.302Z,2.20
2022-11-03T13:50:46.059Z,3.10
2022-11-03T13:56:06.846Z,2.13
2022-11-03T14:01:27.807Z,1.80
2022-11-03T14:06:43.294Z,2.80
2022-11-03T14:09:10.934Z,2.10
2022-11-03T14:11:55.958Z,2.60
2022-11-03T14:14:23.834Z,2.30
2022-11-03T14:16:52.936Z,2.47
2022-11-03T14:19:20.580Z,2.07
2022-11-03T14:21:48.160Z,2.40
2022-11-03T14:24:15.836Z,2.23
2022-11-03T14:26:43.666Z,2.10
2022-11-03T14:29:11.531Z,2.30
2022-11-03T14:31:40.916Z,2.80
2022-11-03T14:34:10.202Z,2.50
2022-11-03T14:36:37.959Z,2.40
2022-11-03T14:39:08.232Z,2.63
2022-11-03T14:41:53.504Z,2.60
2022-11-03T14:44:21.144Z,3.10
2022-11-03T14:46:48.971Z,2.63
2022-11-03T14:49:17.863Z,2.60
2022-11-03T14:51:45.498Z,2.80
2022-11-03T14:54:13.388Z,2.70
2022-11-03T14:56:41.084Z,2.70
2022-11-03T14:59:08.908Z,2.57
2022-11-03T15:01:38.671Z,2.40
2022-11-03T15:04:06.786Z,2.77
2022-11-03T15:06:36.083Z,2.57
2022-11-03T15:09:04.593Z,2.83
2022-11-03T15:11:32.891Z,3.30
2022-11-03T15:14:00.653Z,2.70
2022-11-03T15:16:28.279Z,2.77
2022-11-03T15:18:55.934Z,3.57
2022-11-03T15:21:23.565Z,3.00
2022-11-03T15:26:40.549Z,3.80
2022-11-03T15:29:09.473Z,2.93
2022-11-03T15:31:37.386Z,2.90
2022-11-03T15:34:13.887Z,4.23
2022-11-03T15:36:42.413Z,3.03
2022-11-03T15:39:11.398Z,3.37
2022-11-03T15:41:39.075Z,3.03
2022-11-03T15:44:06.809Z,2.47
2022-11-03T15:46:35.632Z,2.80
2022-11-03T15:49:04.226Z,2.97
2022-11-03T15:51:31.863Z,3.03
2022-11-03T15:53:59.966Z,3.17
2022-11-03T15:56:29.102Z,3.20
2022-11-03T15:58:56.707Z,3.03
2022-11-03T16:01:24.447Z,3.10
2022-11-03T16:03:52.295Z,2.83
2022-11-03T16:06:26.949Z,2.73
2022-11-03T16:08:54.888Z,2.40
2022-11-03T16:11:22.448Z,2.80
2022-11-03T16:13:51.670Z,2.87
2022-11-03T16:16:19.432Z,3.03
2022-11-03T16:18:47.916Z,2.80
2022-11-03T16:21:15.612Z,2.80
2022-11-03T16:23:43.232Z,3.03
2022-11-03T16:26:11.086Z,2.93
2022-11-03T16:28:38.947Z,3.53
2022-11-03T16:31:08.854Z,3.47
2022-11-03T16:33:38.397Z,2.97
2022-11-03T16:36:06.732Z,4.00
2022-11-03T16:38:36.027Z,3.30
2022-11-03T16:41:03.578Z,3.30
2022-11-03T16:43:31.548Z,2.90
2022-11-03T16:45:59.470Z,2.60
2022-11-03T16:48:29.419Z,2.00
2022-11-03T16:50:59.738Z,3.10
2022-11-03T16:53:27.409Z,3.00
2022-11-03T16:55:57.393Z,2.30
2022-11-03T16:58:25.383Z,3.50
2022-11-03T17:00:53.032Z,3.33
2022-11-03T17:03:21.100Z,2.60
2022-11-03T17:05:50.241Z,2.40
2022-11-03T17:08:46.746Z,2.80
2022-11-03T17:11:06.867Z,3.07
2022-11-03T17:13:34.447Z,3.57
2022-11-03T17:16:02.148Z,4.03
2022-11-03T17:18:30.047Z,3.00
2022-11-03T17:20:58.990Z,3.60
2022-11-03T17:23:26.518Z,3.40
2022-11-03T17:25:54.335Z,3.27
2022-11-03T17:28:22.024Z,3.10
2022-11-03T17:30:50.646Z,2.80
2022-11-03T17:33:19.777Z,3.10
2022-11-03T17:35:47.738Z,3.20
2022-11-03T17:38:18.540Z,3.10
2022-11-03T17:40:47.716Z,3.10
2022-11-03T17:43:21.342Z,2.90
2022-11-03T17:45:49.024Z,2.70
2022-11-03T17:48:16.842Z,3.03
2022-11-03T17:50:49.709Z,3.10
2022-11-03T17:53:22.997Z,3.17
2022-11-03T17:56:23.524Z,3.20
2022-11-03T17:58:46.575Z,2.90
2022-11-03T18:01:21.424Z,3.37
2022-11-03T18:03:49.469Z,2.37
2022-11-03T18:06:20.651Z,2.83
2022-11-03T18:08:50.460Z,3.70
2022-11-03T18:11:41.597Z,2.93
2022-11-03T18:14:09.261Z,3.47
2022-11-03T18:16:36.973Z,3.50
2022-11-03T18:19:04.589Z,3.60
2022-11-03T18:21:32.281Z,2.97
2022-11-03T18:24:01.142Z,3.10
2022-11-03T18:26:30.870Z,4.10
2022-11-03T18:28:58.773Z,3.20
2022-11-03T18:31:33.894Z,3.80
2022-11-03T18:34:04.078Z,4.07
2022-11-03T18:36:32.999Z,3.10
2022-11-03T18:39:02.651Z,3.73
2022-11-03T18:41:39.335Z,3.70
2022-11-03T18:44:20.910Z,3.73
2022-11-03T18:46:49.533Z,3.80
2022-11-03T18:49:17.099Z,4.30
2022-11-03T18:51:49.004Z,3.90
2022-11-03T18:54:21.073Z,3.67
2022-11-03T18:56:50.162Z,3.20
2022-11-03T18:59:24.253Z,3.67
2022-11-03T19:01:52.096Z,3.20
2022-11-03T19:04:22.100Z,4.10
2022-11-03T19:06:52.350Z,3.90
2022-11-03T19:09:24.588Z,4.13
2022-11-03T19:11:55.869Z,4.00
2022-11-03T19:14:26.672Z,4.77
2022-11-03T19:17:21.248Z,3.97
2022-11-03T19:19:42.770Z,2.90
2022-11-03T19:22:14.919Z,4.40
2022-11-03T19:24:45.116Z,4.00
2022-11-03T19:27:17.190Z,3.60
2022-11-03T19:29:46.810Z,3.67
2022-11-03T19:32:19.982Z,6.40
2022-11-03T19:34:52.332Z,4.20
2022-11-03T19:37:20.032Z,3.70
2022-11-03T19:39:51.302Z,3.50
2022-11-03T19:42:28.829Z,3.53
2022-11-03T19:44:57.860Z,3.17
2022-11-03T19:47:31.517Z,4.10
2022-11-03T19:50:02.357Z,4.80
2022-11-03T19:52:31.507Z,4.63
2022-11-03T19:55:05.363Z,4.70
2022-11-03T19:57:33.347Z,4.33
2022-11-03T20:00:01.131Z,3.63
2022-11-03T20:02:29.098Z,4.00
2022-11-03T20:04:56.858Z,4.63
2022-11-03T20:07:30.983Z,4.43
2022-11-03T20:10:02.324Z,4.10
2022-11-03T20:12:30.722Z,4.67
2022-11-03T20:14:58.437Z,4.70
2022-11-03T20:17:26.191Z,4.73
2022-11-03T20:19:53.893Z,4.97
2022-11-03T20:22:28.449Z,4.40
2022-11-03T20:24:59.114Z,4.70
2022-11-03T20:27:28.359Z,4.70
2022-11-03T20:29:56.349Z,5.13
2022-11-03T20:32:24.025Z,4.80
2022-11-03T20:34:51.679Z,4.73
2022-11-03T20:37:22.108Z,4.17
2022-11-03T20:39:50.176Z,5.47
2022-11-03T20:42:21.453Z,5.50
2022-11-03T20:44:50.880Z,5.20
2022-11-03T20:47:19.470Z,4.70
2022-11-03T20:49:47.539Z,6.10
2022-11-03T20:52:15.934Z,5.80
2022-11-03T20:54:44.302Z,5.73
2022-11-03T20:57:13.256Z,5.80
2022-11-03T20:59:41.362Z,6.33
2022-11-03T21:02:12.878Z,5.90
2022-11-03T21:04:41.242Z,6.43
2022-11-03T21:07:12.661Z,5.60
2022-11-03T21:09:40.818Z,5.60
2022-11-03T21:12:13.738Z,5.40
2022-11-03T21:15:03.905Z,5.80
2022-11-03T21:17:50.658Z,5.10
2022-11-03T21:20:20.418Z,5.30
2022-11-03T21:22:52.919Z,5.50
2022-11-03T21:25:22.930Z,5.17
2022-11-03T21:27:51.180Z,5.20
2022-11-03T21:30:19.045Z,5.90
2022-11-03T21:32:48.751Z,5.87
2022-11-03T21:35:19.152Z,4.97
2022-11-03T21:37:47.027Z,4.80
2022-11-03T21:40:14.789Z,5.10
2022-11-03T21:43:00.287Z,4.80
2022-11-03T21:45:28.390Z,5.23
2022-11-03T21:48:15.281Z,3.97
2022-11-03T21:50:43.673Z,5.43
2022-11-03T21:53:12.368Z,4.10
2022-11-03T21:55:40.756Z,4.50
2022-11-03T21:58:08.509Z,4.50
2022-11-03T22:00:36.570Z,5.03
2022-11-03T22:03:05.812Z,4.20
2022-11-03T22:05:34.320Z,4.40
2022-11-03T22:08:01.942Z,3.90
2022-11-03T22:10:29.739Z,4.17
2022-11-03T22:12:58.467Z,4.10
2022-11-03T22:15:43.632Z,3.80
2022-11-03T22:18:13.084Z,2.90
2022-11-03T22:20:59.511Z,3.50
2022-11-03T22:23:44.609Z,4.50
2022-11-03T22:26:33.518Z,3.47
2022-11-03T22:29:18.122Z,5.17
2022-11-03T22:31:46.305Z,5.37
2022-11-03T22:34:32.728Z,5.70
2022-11-03T22:37:00.296Z,6.10
2022-11-03T22:39:46.170Z,6.10
2022-11-03T22:42:31.571Z,6.03
2022-11-03T22:45:17.046Z,6.60
2022-11-03T22:47:44.569Z,6.03
2022-11-03T22:50:13.932Z,6.63
2022-11-03T22:52:41.514Z,6.43
2022-11-03T22:55:08.399Z,6.27
2022-11-03T22:57:35.999Z,5.93
2022-11-03T23:00:05.545Z,6.60
2022-11-03T23:02:33.112Z,5.93
2022-11-03T23:05:00.872Z,6.33
2022-11-03T23:07:32.253Z,6.50
2022-11-03T23:10:04.546Z,6.00
2022-11-03T23:12:32.822Z,5.33
2022-11-03T23:15:18.066Z,5.83
2022-11-03T23:18:03.437Z,5.77
2022-11-03T23:20:48.859Z,5.70
2022-11-03T23:23:31.946Z,4.90
2022-11-03T23:25:59.565Z,6.07
2022-11-03T23:28:27.110Z,5.33
2022-11-03T23:30:54.818Z,5.60
2022-11-03T23:33:22.487Z,4.83
2022-11-03T23:35:50.141Z,5.07
2022-11-03T23:38:19.230Z,5.50
2022-11-03T23:40:46.750Z,5.93
2022-11-03T23:43:14.281Z,4.63
2022-11-03T23:45:59.725Z,4.77
2022-11-03T23:48:45.164Z,5.30
2022-11-03T23:51:12.925Z,4.37
2022-11-03T23:53:41.877Z,4.10
2022-11-03T23:56:28.257Z,4.63
2022-11-03T23:58:55.874Z,4.87
